createdAt,value
2018-03-18T00:01:41.997Z,4.83
2018-03-18T00:04:10.428Z,5.70
2018-03-18T00:06:38.901Z,5.60
2018-03-18T00:09:07.313Z,5.30
2018-03-18T00:11:35.741Z,7.77
2018-03-18T00:14:04.215Z,7.73
2018-03-18T00:16:32.624Z,6.80
2018-03-18T00:19:01.044Z,8.37
2018-03-18T00:21:29.498Z,6.47
2018-03-18T00:23:57.915Z,7.00
2018-03-18T00:26:26.325Z,8.17
2018-03-18T00:28:54.775Z,5.47
2018-03-18T00:31:23.187Z,5.93
2018-03-18T00:33:51.598Z,4.83
2018-03-18T00:36:20.042Z,4.63
2018-03-18T00:38:48.468Z,5.70
2018-03-18T00:41:16.884Z,4.93
2018-03-18T00:43:45.348Z,6.00
2018-03-18T00:46:13.763Z,5.30
2018-03-18T00:48:42.192Z,5.80
2018-03-18T00:51:10.692Z,5.93
2018-03-18T00:53:39.112Z,5.17
2018-03-18T00:56:07.513Z,4.90
2018-03-18T00:58:35.961Z,6.40
2018-03-18T01:01:04.366Z,5.60
2018-03-18T01:03:32.778Z,3.87
2018-03-18T01:06:01.221Z,5.57
2018-03-18T01:08:29.640Z,6.37
2018-03-18T01:10:58.050Z,5.30
2018-03-18T01:13:26.519Z,5.83
2018-03-18T01:15:54.941Z,5.33
2018-03-18T01:18:23.360Z,5.50
2018-03-18T01:20:51.824Z,5.37
2018-03-18T01:23:20.244Z,5.47
2018-03-18T01:25:48.648Z,5.40
2018-03-18T01:28:17.099Z,5.40
2018-03-18T01:30:45.510Z,5.97
2018-03-18T01:33:13.929Z,5.27
2018-03-18T01:35:42.390Z,6.07
2018-03-18T01:38:10.802Z,4.83
2018-03-18T01:40:39.210Z,5.17
2018-03-18T01:43:07.681Z,5.30
2018-03-18T01:45:36.100Z,4.77
2018-03-18T01:48:04.529Z,4.55
2018-03-18T01:50:33.012Z,5.03
2018-03-18T01:53:13.272Z,6.27
2018-03-18T01:55:41.722Z,4.50
2018-03-18T01:58:10.128Z,3.70
2018-03-18T02:00:38.547Z,5.20
2018-03-18T02:03:07.015Z,5.50
2018-03-18T02:05:35.450Z,5.03
2018-03-18T02:08:03.885Z,5.60
2018-03-18T02:10:32.340Z,5.25
2018-03-18T02:13:00.772Z,4.72
2018-03-18T02:15:29.194Z,5.75
2018-03-18T02:17:57.672Z,5.15
2018-03-18T02:20:26.106Z,5.82
2018-03-18T02:22:54.547Z,5.43
2018-03-18T02:25:23.024Z,5.93
2018-03-18T02:27:51.453Z,4.68
2018-03-18T02:30:19.869Z,6.13
2018-03-18T02:32:48.324Z,5.60
2018-03-18T02:35:16.738Z,5.17
2018-03-18T02:37:45.149Z,5.83
2018-03-18T02:40:13.629Z,6.03
2018-03-18T02:42:42.042Z,4.90
2018-03-18T02:45:10.463Z,6.05
2018-03-18T02:47:38.938Z,5.68
2018-03-18T02:50:07.369Z,6.20
2018-03-18T02:52:35.796Z,6.10
2018-03-18T02:55:04.294Z,5.47
2018-03-18T02:57:32.709Z,5.87
2018-03-18T03:00:01.125Z,6.17
2018-03-18T03:02:29.583Z,5.95
2018-03-18T03:04:58.003Z,6.72
2018-03-18T03:07:26.423Z,5.28
2018-03-18T03:09:54.889Z,6.03
2018-03-18T03:12:23.298Z,5.30
2018-03-18T03:14:51.724Z,4.70
2018-03-18T03:17:20.206Z,5.07
2018-03-18T03:19:48.622Z,6.27
2018-03-18T03:22:17.057Z,5.68
2018-03-18T03:24:45.528Z,6.05
2018-03-18T03:27:13.956Z,3.28
2018-03-18T03:29:42.393Z,5.47
2018-03-18T03:32:10.847Z,6.37
2018-03-18T03:34:39.268Z,4.07
2018-03-18T03:37:07.678Z,5.70
2018-03-18T03:39:36.136Z,5.20
2018-03-18T03:42:04.608Z,4.70
2018-03-18T03:44:33.022Z,4.80
2018-03-18T03:47:01.500Z,5.53
2018-03-18T03:49:29.926Z,6.30
2018-03-18T03:51:58.354Z,5.57
2018-03-18T03:54:26.803Z,4.55
2018-03-18T03:56:55.224Z,5.90
2018-03-18T03:59:23.656Z,6.78
2018-03-18T04:01:52.122Z,5.30
2018-03-18T04:04:20.530Z,3.80
2018-03-18T04:06:48.947Z,4.00
2018-03-18T04:09:17.393Z,4.30
2018-03-18T04:11:45.798Z,5.35
2018-03-18T04:14:14.219Z,3.92
2018-03-18T04:16:42.670Z,5.35
2018-03-18T04:19:11.093Z,5.85
2018-03-18T04:21:39.515Z,5.15
2018-03-18T04:24:08.067Z,4.03
2018-03-18T04:26:36.491Z,6.07
2018-03-18T04:29:04.913Z,3.50
2018-03-18T04:31:33.394Z,3.70
2018-03-18T04:34:01.820Z,4.12
2018-03-18T04:36:30.234Z,5.70
2018-03-18T04:38:58.700Z,4.87
2018-03-18T04:41:27.127Z,4.82
2018-03-18T04:43:55.546Z,5.37
2018-03-18T04:46:24.024Z,5.43
2018-03-18T04:48:52.447Z,6.03
2018-03-18T04:51:20.858Z,4.70
2018-03-18T04:53:49.314Z,5.87
2018-03-18T04:56:17.727Z,6.03
2018-03-18T04:58:46.147Z,4.25
2018-03-18T05:01:14.598Z,4.65
2018-03-18T05:03:43.020Z,5.90
2018-03-18T05:06:11.477Z,5.57
2018-03-18T05:08:39.938Z,5.78
2018-03-18T05:11:08.358Z,4.93
2018-03-18T05:13:36.781Z,5.32
2018-03-18T05:16:05.260Z,4.95
2018-03-18T05:18:33.684Z,5.68
2018-03-18T05:21:02.105Z,6.68
2018-03-18T05:23:30.550Z,5.68
2018-03-18T05:25:58.958Z,5.37
2018-03-18T05:28:27.376Z,4.65
2018-03-18T05:30:55.822Z,5.45
2018-03-18T05:33:24.248Z,7.12
2018-03-18T05:35:52.669Z,5.18
2018-03-18T05:38:21.139Z,3.65
2018-03-18T05:40:49.562Z,5.10
2018-03-18T05:43:17.977Z,5.28
2018-03-18T05:45:46.430Z,6.68
2018-03-18T05:48:14.842Z,5.87
2018-03-18T05:50:43.259Z,4.32
2018-03-18T05:53:11.715Z,6.30
2018-03-18T05:55:40.123Z,3.80
2018-03-18T05:58:08.526Z,3.20
2018-03-18T06:00:36.996Z,4.55
2018-03-18T06:03:05.413Z,4.90
2018-03-18T06:05:33.840Z,6.47
2018-03-18T06:08:02.319Z,10.50
2018-03-18T06:10:30.736Z,4.30
2018-03-18T06:12:59.160Z,5.97
2018-03-18T06:15:27.626Z,5.57
2018-03-18T06:17:56.069Z,4.78
2018-03-18T06:20:24.496Z,4.65
2018-03-18T06:22:52.942Z,4.43
2018-03-18T06:25:21.345Z,4.00
2018-03-18T06:27:49.754Z,5.50
2018-03-18T06:30:18.247Z,5.25
2018-03-18T06:32:46.662Z,5.47
2018-03-18T06:35:15.079Z,3.92
2018-03-18T06:37:43.542Z,4.57
2018-03-18T06:40:11.960Z,4.50
2018-03-18T06:42:40.416Z,4.57
2018-03-18T06:45:08.892Z,5.20
2018-03-18T06:47:37.332Z,3.62
2018-03-18T06:50:05.748Z,4.80
2018-03-18T06:52:34.216Z,5.68
2018-03-18T06:55:02.622Z,4.43
2018-03-18T06:57:31.040Z,3.17
2018-03-18T06:59:59.504Z,3.75
2018-03-18T07:02:27.939Z,3.72
2018-03-18T07:04:56.356Z,3.62
2018-03-18T07:07:24.848Z,4.43
2018-03-18T07:09:53.538Z,5.43
2018-03-18T07:12:21.941Z,3.95
2018-03-18T07:14:50.385Z,3.55
2018-03-18T07:17:18.802Z,3.62
2018-03-18T07:19:47.210Z,3.92
2018-03-18T07:22:15.659Z,2.30
2018-03-18T07:24:44.074Z,4.03
2018-03-18T07:27:12.486Z,3.92
2018-03-18T07:29:40.960Z,4.28
2018-03-18T07:32:09.389Z,3.90
2018-03-18T07:34:37.798Z,2.53
2018-03-18T07:37:06.257Z,2.90
2018-03-18T07:39:34.674Z,4.68
2018-03-18T07:42:03.115Z,4.32
2018-03-18T07:44:31.567Z,2.60
2018-03-18T07:46:59.978Z,2.67
2018-03-18T07:49:28.396Z,3.05
2018-03-18T07:51:56.855Z,4.10
2018-03-18T07:54:25.261Z,4.22
2018-03-18T07:56:53.661Z,3.72
2018-03-18T07:59:22.114Z,2.67
2018-03-18T08:01:50.538Z,2.33
2018-03-18T08:04:18.941Z,3.20
2018-03-18T08:06:47.402Z,3.12
2018-03-18T08:09:15.806Z,3.65
2018-03-18T08:11:44.224Z,3.83
2018-03-18T08:14:12.713Z,2.78
2018-03-18T08:16:41.136Z,3.50
2018-03-18T08:19:09.559Z,2.33
2018-03-18T08:21:38.032Z,3.60
2018-03-18T08:24:06.459Z,4.78
2018-03-18T08:26:34.916Z,4.50
2018-03-18T08:29:03.380Z,3.75
2018-03-18T08:31:31.791Z,3.58
2018-03-18T08:34:00.210Z,5.00
2018-03-18T08:36:28.676Z,4.28
2018-03-18T08:38:57.090Z,3.92
2018-03-18T08:41:25.512Z,5.15
2018-03-18T08:43:54.005Z,13.60
2018-03-18T08:46:22.430Z,15.43
2018-03-18T08:48:50.847Z,17.65
2018-03-18T08:51:19.313Z,17.87
2018-03-18T08:53:47.738Z,13.68
2018-03-18T08:56:16.167Z,14.87
2018-03-18T08:58:44.634Z,11.20
2018-03-18T09:01:13.072Z,8.50
2018-03-18T09:03:41.492Z,9.87
2018-03-18T09:06:09.965Z,8.60
2018-03-18T09:08:38.378Z,8.67
2018-03-18T09:11:06.795Z,6.97
2018-03-18T09:13:35.258Z,8.57
2018-03-18T09:16:03.683Z,4.80
2018-03-18T09:18:32.100Z,5.40
2018-03-18T09:21:00.565Z,6.80
2018-03-18T09:23:29.010Z,12.00
2018-03-18T09:25:57.436Z,6.70
2018-03-18T09:28:25.886Z,12.27
2018-03-18T09:30:54.294Z,6.80
2018-03-18T09:33:22.702Z,6.60
2018-03-18T09:35:51.145Z,9.60
2018-03-18T09:38:19.573Z,9.20
2018-03-18T09:40:47.986Z,5.47
2018-03-18T09:43:17.078Z,4.13
2018-03-18T09:45:45.486Z,5.47
2018-03-18T09:48:13.881Z,3.00
2018-03-18T09:50:42.336Z,3.37
2018-03-18T09:53:10.757Z,2.87
2018-03-18T09:55:39.162Z,4.57
2018-03-18T09:58:07.607Z,4.03
2018-03-18T10:00:36.020Z,3.80
2018-03-18T10:03:04.423Z,3.83
2018-03-18T10:05:32.887Z,4.43
2018-03-18T10:08:01.304Z,4.40
2018-03-18T10:10:29.734Z,4.10
2018-03-18T10:12:58.327Z,4.17
2018-03-18T10:15:26.723Z,3.80
2018-03-18T10:17:55.159Z,3.50
2018-03-18T10:20:23.647Z,3.37
2018-03-18T10:22:52.078Z,3.57
2018-03-18T10:25:20.510Z,3.93
2018-03-18T10:27:48.958Z,3.73
2018-03-18T10:30:17.361Z,2.90
2018-03-18T10:32:45.763Z,3.13
2018-03-18T10:35:14.334Z,3.90
2018-03-18T10:37:42.750Z,4.00
2018-03-18T10:40:11.168Z,2.77
2018-03-18T10:42:39.632Z,4.13
2018-03-18T10:45:08.033Z,4.00
2018-03-18T10:47:36.442Z,4.00
2018-03-18T10:50:04.919Z,3.13
2018-03-18T10:52:33.332Z,3.20
2018-03-18T10:55:01.892Z,3.70
2018-03-18T10:57:30.338Z,4.17
2018-03-18T10:59:58.738Z,3.70
2018-03-18T11:02:27.157Z,2.43
2018-03-18T11:04:55.610Z,4.10
2018-03-18T11:07:24.028Z,3.77
2018-03-18T11:09:52.437Z,2.87
2018-03-18T11:12:20.888Z,3.50
2018-03-18T11:14:49.300Z,3.97
2018-03-18T11:17:17.724Z,3.87
2018-03-18T11:19:46.176Z,4.63
2018-03-18T11:22:14.613Z,3.60
2018-03-18T11:24:43.028Z,3.93
2018-03-18T11:27:11.526Z,5.87
2018-03-18T11:29:40.131Z,3.83
2018-03-18T11:32:08.533Z,3.60
2018-03-18T11:34:37.003Z,4.83
2018-03-18T11:37:05.420Z,4.00
2018-03-18T11:39:33.845Z,4.27
2018-03-18T11:42:02.299Z,3.53
2018-03-18T11:44:30.750Z,3.53
2018-03-18T11:46:59.153Z,3.87
2018-03-18T11:49:27.607Z,4.33
2018-03-18T11:51:56.021Z,3.27
2018-03-18T11:54:24.525Z,3.50
2018-03-18T11:56:52.922Z,3.63
2018-03-18T11:59:21.328Z,4.27
2018-03-18T12:01:49.751Z,4.73
2018-03-18T12:04:18.216Z,3.97
2018-03-18T12:06:46.636Z,4.83
2018-03-18T12:09:15.039Z,2.97
2018-03-18T12:11:43.488Z,4.07
2018-03-18T12:14:11.916Z,4.60
2018-03-18T12:16:40.333Z,3.20
2018-03-18T12:19:08.792Z,3.37
2018-03-18T12:21:37.223Z,4.17
2018-03-18T12:24:05.630Z,5.27
2018-03-18T12:26:34.085Z,4.60
2018-03-18T12:29:02.516Z,4.83
2018-03-18T12:31:30.928Z,4.30
2018-03-18T12:33:59.380Z,5.10
2018-03-18T12:36:27.796Z,5.67
2018-03-18T12:38:56.212Z,5.47
2018-03-18T12:41:24.688Z,5.57
2018-03-18T12:43:53.094Z,4.13
2018-03-18T12:46:21.538Z,3.67
2018-03-18T12:48:49.993Z,4.10
2018-03-18T12:51:18.410Z,4.00
2018-03-18T12:53:46.844Z,5.03
2018-03-18T12:56:15.298Z,5.80
2018-03-18T12:58:43.699Z,5.93
2018-03-18T13:01:12.118Z,5.93
2018-03-18T13:03:40.562Z,5.60
2018-03-18T13:06:08.975Z,6.03
2018-03-18T13:08:37.388Z,5.90
2018-03-18T13:11:05.829Z,2.97
2018-03-18T13:13:34.222Z,4.63
2018-03-18T13:16:02.618Z,4.20
2018-03-18T13:18:31.078Z,5.93
2018-03-18T13:20:59.474Z,5.10
2018-03-18T13:23:27.873Z,6.57
2018-03-18T13:25:56.324Z,4.53
2018-03-18T13:28:24.728Z,4.10
2018-03-18T13:30:53.140Z,3.17
2018-03-18T13:33:21.591Z,3.43
2018-03-18T13:35:49.986Z,4.77
2018-03-18T13:38:18.386Z,4.90
2018-03-18T13:40:46.834Z,4.30
2018-03-18T13:43:16.143Z,5.63
2018-03-18T13:45:44.545Z,5.17
2018-03-18T13:48:12.992Z,5.07
2018-03-18T13:50:41.405Z,4.03
2018-03-18T13:53:09.813Z,3.10
2018-03-18T13:55:38.258Z,3.30
2018-03-18T13:58:06.664Z,5.13
2018-03-18T14:00:35.058Z,4.83
2018-03-18T14:03:03.499Z,5.27
2018-03-18T14:05:31.929Z,3.87
2018-03-18T14:08:00.326Z,2.80
2018-03-18T14:10:28.767Z,3.97
2018-03-18T14:12:57.175Z,2.70
2018-03-18T14:15:25.579Z,4.60
2018-03-18T14:17:54.033Z,4.87
2018-03-18T14:20:22.478Z,5.37
2018-03-18T14:22:50.878Z,4.37
2018-03-18T14:25:19.322Z,7.33
2018-03-18T14:27:47.728Z,3.87
2018-03-18T14:30:16.131Z,5.00
2018-03-18T14:32:44.600Z,2.97
2018-03-18T14:35:13.029Z,4.07
2018-03-18T14:37:41.442Z,5.20
2018-03-18T14:40:09.906Z,3.83
2018-03-18T14:42:38.308Z,4.10
2018-03-18T14:45:06.706Z,4.70
2018-03-18T14:47:35.149Z,3.27
2018-03-18T14:50:03.551Z,3.87
2018-03-18T14:52:31.945Z,5.00
2018-03-18T14:55:00.382Z,5.10
2018-03-18T14:57:28.774Z,3.40
2018-03-18T14:59:57.197Z,4.03
2018-03-18T15:02:25.659Z,3.70
2018-03-18T15:04:54.062Z,3.70
2018-03-18T15:07:22.485Z,5.13
2018-03-18T15:09:50.950Z,4.83
2018-03-18T15:12:19.376Z,5.80
2018-03-18T15:14:47.788Z,5.47
2018-03-18T15:17:16.250Z,8.23
2018-03-18T15:19:44.655Z,6.47
2018-03-18T15:22:13.064Z,5.60
2018-03-18T15:24:41.531Z,9.30
2018-03-18T15:27:09.952Z,6.30
2018-03-18T15:29:38.363Z,4.50
2018-03-18T15:32:06.834Z,5.47
2018-03-18T15:34:35.338Z,4.43
2018-03-18T15:37:03.777Z,4.97
2018-03-18T15:39:32.233Z,6.07
2018-03-18T15:42:00.634Z,3.70
2018-03-18T15:44:29.038Z,4.10
2018-03-18T15:46:57.666Z,3.60
2018-03-18T15:49:26.076Z,2.87
2018-03-18T15:51:54.503Z,2.63
2018-03-18T15:54:22.966Z,3.20
2018-03-18T15:56:51.390Z,3.33
2018-03-18T15:59:19.791Z,3.53
2018-03-18T16:01:48.230Z,3.43
2018-03-18T16:04:16.653Z,3.47
2018-03-18T16:06:45.063Z,3.30
2018-03-18T16:09:13.538Z,5.77
2018-03-18T16:11:41.947Z,3.87
2018-03-18T16:14:10.356Z,3.03
2018-03-18T16:16:38.798Z,4.50
2018-03-18T16:19:07.195Z,4.23
2018-03-18T16:21:35.607Z,3.30
2018-03-18T16:24:04.085Z,3.90
2018-03-18T16:26:32.502Z,4.23
2018-03-18T16:29:12.748Z,3.60
2018-03-18T16:31:41.145Z,3.37
2018-03-18T16:34:09.573Z,6.43
2018-03-18T16:36:38.045Z,6.13
2018-03-18T16:39:06.464Z,4.50
2018-03-18T16:41:34.873Z,4.57
2018-03-18T16:44:03.332Z,3.90
2018-03-18T16:46:31.729Z,4.27
2018-03-18T16:49:00.134Z,4.43
2018-03-18T16:51:28.588Z,4.10
2018-03-18T16:53:57.002Z,4.40
2018-03-18T16:56:25.412Z,4.43
2018-03-18T16:58:53.889Z,5.00
2018-03-18T17:01:22.374Z,5.97
2018-03-18T17:03:51.016Z,3.57
2018-03-18T17:06:19.454Z,5.00
2018-03-18T17:08:47.860Z,3.47
2018-03-18T17:11:16.283Z,7.50
2018-03-18T17:13:44.747Z,4.93
2018-03-18T17:16:13.166Z,4.73
2018-03-18T17:18:41.569Z,4.53
2018-03-18T17:21:10.027Z,3.80
2018-03-18T17:23:38.438Z,3.00
2018-03-18T17:26:06.856Z,3.00
2018-03-18T17:28:35.315Z,3.40
2018-03-18T17:31:03.735Z,4.93
2018-03-18T17:33:32.138Z,4.13
2018-03-18T17:36:00.591Z,3.03
2018-03-18T17:38:28.994Z,3.50
2018-03-18T17:40:57.421Z,3.53
2018-03-18T17:43:25.912Z,3.00
2018-03-18T17:46:06.023Z,3.67
2018-03-18T17:48:46.260Z,3.27
2018-03-18T17:51:26.398Z,3.43
2018-03-18T17:54:06.616Z,3.60
2018-03-18T17:56:36.834Z,4.00
2018-03-18T17:59:05.248Z,3.70
2018-03-18T18:01:33.717Z,3.17
2018-03-18T18:04:02.138Z,3.30
2018-03-18T18:06:30.543Z,3.47
2018-03-18T18:08:59.006Z,4.23
2018-03-18T18:11:27.447Z,2.97
2018-03-18T18:13:55.862Z,2.97
2018-03-18T18:16:24.319Z,3.90
2018-03-18T18:18:52.720Z,4.07
2018-03-18T18:21:21.126Z,4.50
2018-03-18T18:23:49.580Z,3.13
2018-03-18T18:26:17.987Z,3.57
2018-03-18T18:28:46.437Z,4.50
2018-03-18T18:31:14.894Z,5.63
2018-03-18T18:33:43.300Z,4.90
2018-03-18T18:36:11.728Z,5.23
2018-03-18T18:38:40.194Z,4.13
2018-03-18T18:41:08.632Z,3.37
2018-03-18T18:43:37.034Z,3.57
2018-03-18T18:46:05.478Z,4.50
2018-03-18T18:48:33.890Z,5.03
2018-03-18T18:51:02.328Z,4.20
2018-03-18T18:53:30.795Z,4.47
2018-03-18T18:55:59.208Z,4.47
2018-03-18T18:58:27.656Z,3.30
2018-03-18T19:00:56.110Z,4.00
2018-03-18T19:03:24.529Z,3.90
2018-03-18T19:05:52.947Z,3.87
2018-03-18T19:08:21.403Z,3.50
2018-03-18T19:10:49.870Z,4.10
2018-03-18T19:13:18.285Z,3.63
2018-03-18T19:15:46.736Z,3.17
2018-03-18T19:18:15.156Z,3.57
2018-03-18T19:20:43.558Z,3.97
2018-03-18T19:23:12.009Z,3.27
2018-03-18T19:25:40.419Z,4.10
2018-03-18T19:28:08.832Z,3.10
2018-03-18T19:30:37.306Z,3.70
2018-03-18T19:33:05.721Z,2.93
2018-03-18T19:35:34.139Z,2.67
2018-03-18T19:38:02.588Z,3.07
2018-03-18T19:40:30.990Z,3.37
2018-03-18T19:42:59.422Z,3.47
2018-03-18T19:45:27.939Z,3.47
2018-03-18T19:47:56.332Z,3.20
2018-03-18T19:50:24.740Z,2.57
2018-03-18T19:52:53.217Z,3.47
2018-03-18T19:55:21.629Z,2.70
2018-03-18T19:57:50.034Z,4.30
2018-03-18T20:00:18.499Z,3.63
2018-03-18T20:02:46.915Z,7.57
2018-03-18T20:05:15.341Z,3.83
2018-03-18T20:07:43.793Z,3.63
2018-03-18T20:10:12.203Z,4.13
2018-03-18T20:12:40.607Z,4.53
2018-03-18T20:15:09.062Z,4.00
2018-03-18T20:17:37.471Z,4.57
2018-03-18T20:20:09.090Z,4.33
2018-03-18T20:22:37.599Z,3.07
2018-03-18T20:25:06.023Z,3.60
2018-03-18T20:27:34.452Z,4.13
2018-03-18T20:30:02.916Z,4.20
2018-03-18T20:32:31.350Z,4.83
2018-03-18T20:34:59.750Z,3.40
2018-03-18T20:37:28.206Z,2.97
2018-03-18T20:39:56.625Z,4.60
2018-03-18T20:42:25.064Z,4.30
2018-03-18T20:44:53.505Z,3.70
2018-03-18T20:47:21.914Z,3.80
2018-03-18T20:49:50.328Z,3.47
2018-03-18T20:52:18.880Z,4.30
2018-03-18T20:54:47.283Z,4.17
2018-03-18T20:57:15.788Z,5.30
2018-03-18T20:59:44.260Z,3.57
2018-03-18T21:02:12.676Z,4.23
2018-03-18T21:04:41.084Z,4.60
2018-03-18T21:07:09.531Z,3.97
2018-03-18T21:09:37.943Z,4.43
2018-03-18T21:12:07.615Z,3.00
2018-03-18T21:14:36.145Z,4.30
2018-03-18T21:17:04.555Z,5.03
2018-03-18T21:19:32.958Z,4.23
2018-03-18T21:22:01.782Z,4.67
2018-03-18T21:24:30.196Z,4.47
2018-03-18T21:26:58.608Z,4.10
2018-03-18T21:29:27.050Z,3.67
2018-03-18T21:31:55.460Z,2.87
2018-03-18T21:34:43.691Z,3.07
2018-03-18T21:37:12.124Z,3.03
2018-03-18T21:39:40.540Z,3.73
2018-03-18T21:42:09.012Z,4.50
2018-03-18T21:44:37.422Z,3.63
2018-03-18T21:47:05.840Z,3.60
2018-03-18T21:49:34.304Z,3.50
2018-03-18T21:52:02.718Z,4.03
2018-03-18T21:54:31.133Z,3.50
2018-03-18T21:56:59.596Z,3.37
2018-03-18T21:59:28.002Z,2.73
2018-03-18T22:01:56.419Z,4.30
2018-03-18T22:04:24.872Z,3.73
2018-03-18T22:06:53.288Z,4.37
2018-03-18T22:09:21.705Z,3.90
2018-03-18T22:11:50.148Z,3.93
2018-03-18T22:14:18.560Z,3.80
2018-03-18T22:16:46.958Z,4.10
2018-03-18T22:19:15.424Z,3.30
2018-03-18T22:21:43.841Z,3.53
2018-03-18T22:24:12.256Z,4.23
2018-03-18T22:26:40.717Z,3.83
2018-03-18T22:29:09.121Z,3.33
2018-03-18T22:31:37.558Z,4.00
2018-03-18T22:34:06.006Z,3.73
2018-03-18T22:36:34.416Z,3.80
2018-03-18T22:39:02.830Z,3.53
2018-03-18T22:41:31.275Z,4.77
2018-03-18T22:43:59.684Z,2.80
2018-03-18T22:46:28.089Z,4.70
2018-03-18T22:48:56.564Z,4.87
2018-03-18T22:51:24.970Z,3.23
2018-03-18T22:53:53.384Z,4.07
2018-03-18T22:56:21.839Z,4.50
2018-03-18T22:58:50.237Z,2.80
2018-03-18T23:01:18.659Z,4.17
2018-03-18T23:03:47.142Z,3.87
2018-03-18T23:06:15.560Z,5.80
2018-03-18T23:08:43.970Z,6.30
2018-03-18T23:11:12.427Z,6.17
2018-03-18T23:13:40.840Z,8.73
2018-03-18T23:16:09.271Z,16.30
2018-03-18T23:18:37.740Z,10.87
2018-03-18T23:21:06.160Z,4.70
2018-03-18T23:23:34.574Z,5.90
2018-03-18T23:26:03.032Z,3.30
2018-03-18T23:28:31.441Z,5.57
2018-03-18T23:30:59.838Z,3.83
2018-03-18T23:33:28.278Z,5.43
2018-03-18T23:35:56.692Z,4.40
2018-03-18T23:38:25.114Z,3.93
2018-03-18T23:40:53.584Z,3.70
2018-03-18T23:43:22.000Z,4.50
2018-03-18T23:45:50.394Z,3.70
2018-03-18T23:48:18.847Z,3.60
2018-03-18T23:50:49.118Z,4.67
2018-03-18T23:53:17.528Z,4.53
2018-03-18T23:55:45.966Z,3.60
2018-03-18T23:58:14.401Z,4.00
